Time;durP1;ratioP1;P1;durP2;ratioP2;P2;SDS_P1;SDS_P2;PMS_P1;PMS_P2;Temp;Humidity;BMP_temperature;BMP_pressure;BME280_temperature;BME280_humidity;BME280_pressure;Samples;Min_cycle;Max_cycle;Signal;HPM_P1;HPM_P2
2023/05/04 00:00:41;;;;;;;6.10;4.97;;;;;;;14.98;63.44;94769.06;5131318;27;20215;-49
2023/05/04 00:03:08;;;;;;;6.03;5.43;;;;;;;14.98;63.38;94763.09;5131141;27;20192;-50
2023/05/04 00:05:35;;;;;;;5.57;4.53;;;;;;;14.98;63.54;94766.50;5131098;27;20231;-48
2023/05/04 00:08:02;;;;;;;6.77;5.50;;;;;;;14.95;63.55;94761.66;5132968;27;20643;-49
2023/05/04 00:10:29;;;;;;;5.50;5.00;;;;;;;14.96;63.58;94752.16;5131233;27;20281;-49
2023/05/04 00:12:56;;;;;;;6.23;5.50;;;;;;;14.96;63.85;94752.97;5131238;27;20199;-48
2023/05/04 00:15:23;;;;;;;6.13;5.17;;;;;;;14.96;63.93;94754.72;5130883;27;20202;-50
2023/05/04 00:17:51;;;;;;;6.10;5.37;;;;;;;14.95;64.11;94751.34;5130853;27;20245;-49
2023/05/04 00:20:18;;;;;;;6.57;5.87;;;;;;;14.94;64.38;94757.47;5131348;27;20598;-50
2023/05/04 00:22:44;;;;;;;6.10;5.50;;;;;;;14.94;64.29;94752.34;5131455;27;20204;-49
2023/05/04 00:25:11;;;;;;;6.30;5.70;;;;;;;14.94;64.55;94754.91;5130968;27;20228;-49
2023/05/04 00:27:38;;;;;;;7.00;6.27;;;;;;;14.94;64.33;94760.06;5131212;27;20203;-48
2023/05/04 00:30:06;;;;;;;7.03;6.17;;;;;;;14.96;64.48;94757.31;5130691;27;20252;-50
2023/05/04 00:32:33;;;;;;;7.30;6.10;;;;;;;14.96;64.56;94763.25;5130263;27;20208;-48
2023/05/04 00:35:01;;;;;;;6.33;5.73;;;;;;;14.48;64.82;94686.84;5132360;27;20203;-48
2023/05/04 00:37:28;;;;;;;7.10;5.80;;;;;;;14.97;64.77;94758.91;5131890;27;20193;-49
2023/05/04 00:39:54;;;;;;;7.83;6.40;;;;;;;14.96;65.00;94758.09;5130652;27;20212;-48
2023/05/04 00:42:21;;;;;;;6.70;6.07;;;;;;;14.98;64.78;94763.91;5130136;27;20188;-48
2023/05/04 00:44:48;;;;;;;6.50;5.87;;;;;;;15.00;64.91;94764.53;5130278;27;20191;-48
2023/05/04 00:47:15;;;;;;;7.90;6.47;;;;;;;14.97;64.99;94758.91;5130187;27;20188;-49
2023/05/04 00:49:42;;;;;;;7.40;6.57;;;;;;;15.00;65.09;94763.75;5130920;27;20245;-49
2023/05/04 00:52:13;;;;;;;7.10;5.97;;;;;;;15.01;65.04;94763.56;5130180;27;20192;-49
2023/05/04 00:54:41;;;;;;;8.03;6.63;;;;;;;15.00;65.25;94761.97;5130196;27;20185;-48
2023/05/04 00:57:08;;;;;;;7.90;7.13;;;;;;;14.99;65.29;94762.94;5129681;27;20769;-49
2023/05/04 00:59:34;;;;;;;7.40;6.43;;;;;;;15.00;65.68;94761.97;5130256;27;20176;-48
2023/05/04 01:02:01;;;;;;;7.30;6.60;;;;;;;14.98;65.68;94756.19;5130043;27;20652;-49
2023/05/04 01:04:28;;;;;;;8.57;6.97;;;;;;;14.98;65.86;94745.06;5129914;27;20661;-48
2023/05/04 01:07:03;;;;;;;8.23;6.93;;;;;;;14.96;66.00;94747.00;5129945;27;20196;-50
2023/05/04 01:09:36;;;;;;;7.97;7.17;;;;;;;14.96;65.84;94745.22;5130221;27;20624;-49
2023/05/04 01:12:06;;;;;;;8.77;7.20;;;;;;;14.94;65.97;94741.19;5129730;27;20224;-48
2023/05/04 01:14:35;;;;;;;7.83;7.03;;;;;;;14.96;65.91;94742.66;5129676;27;20695;-48
2023/05/04 01:17:04;;;;;;;9.43;7.60;;;;;;;14.97;66.04;94751.97;5129861;27;20188;-49
2023/05/04 01:19:31;;;;;;;8.80;7.87;;;;;;;14.98;65.93;94747.63;5130001;27;20189;-48
2023/05/04 01:21:59;;;;;;;8.53;6.97;;;;;;;14.96;65.89;94741.84;5129678;27;20188;-48
2023/05/04 01:24:28;;;;;;;9.70;7.83;;;;;;;14.97;65.93;94756.34;5129481;27;20216;-50
2023/05/04 01:27:01;;;;;;;9.67;7.60;;;;;;;14.82;66.06;94719.34;5129840;27;20196;-50
2023/05/04 01:29:34;;;;;;;8.63;7.80;;;;;;;14.97;66.29;94740.88;5130039;27;20645;-48
2023/05/04 01:32:03;;;;;;;7.53;6.83;;;;;;;14.96;66.21;94741.84;5129674;27;20192;-48
2023/05/04 01:34:30;;;;;;;8.67;7.87;;;;;;;14.97;66.28;94735.72;5130172;27;20284;-49
2023/05/04 01:36:57;;;;;;;8.00;7.20;;;;;;;14.98;66.17;94737.34;5129627;27;20638;-48
2023/05/04 01:39:25;;;;;;;7.80;7.10;;;;;;;14.99;65.82;94744.13;5129639;27;20189;-49
2023/05/04 01:41:52;;;;;;;9.10;7.67;;;;;;;14.99;66.04;94738.97;5129926;27;20220;-50
2023/05/04 01:44:18;;;;;;;8.90;7.70;;;;;;;14.99;66.19;94734.63;5129921;27;20192;-48
2023/05/04 01:46:46;;;;;;;8.30;7.60;;;;;;;15.00;66.15;94725.91;5129313;27;20189;-49
2023/05/04 01:49:12;;;;;;;8.60;7.70;;;;;;;15.01;65.84;94729.28;5129685;27;20196;-48
2023/05/04 01:51:39;;;;;;;8.50;7.63;;;;;;;15.01;66.09;94722.38;5129648;28;20625;-50
2023/05/04 01:54:06;;;;;;;10.07;7.83;;;;;;;15.01;65.90;94724.94;5129076;28;20196;-49
2023/05/04 01:56:34;;;;;;;11.10;8.53;;;;;;;14.47;65.91;94641.50;5129235;28;20665;-48
2023/05/04 01:59:02;;;;;;;8.83;8.03;;;;;;;14.97;65.92;94720.28;5130204;28;20279;-49
2023/05/04 02:01:29;;;;;;;9.43;8.53;;;;;;;15.00;65.93;94732.84;5131012;27;20285;-48
2023/05/04 02:03:55;;;;;;;8.60;7.70;;;;;;;14.95;65.70;94720.47;5129659;27;20184;-48
2023/05/04 02:06:22;;;;;;;8.90;8.00;;;;;;;15.02;65.89;94729.13;5129565;27;20660;-49
2023/05/04 02:08:50;;;;;;;9.33;7.60;;;;;;;15.03;65.94;94728.16;5129572;27;20595;-50
2023/05/04 02:11:17;;;;;;;9.10;8.20;;;;;;;15.00;65.84;94725.91;5133912;27;20289;-49
2023/05/04 02:13:45;;;;;;;9.00;8.13;;;;;;;14.97;65.45;94710.78;5133766;27;20192;-49
2023/05/04 02:16:12;;;;;;;9.23;8.33;;;;;;;15.03;65.80;94723.03;5133538;27;20185;-48
2023/05/04 02:18:38;;;;;;;8.43;7.60;;;;;;;15.04;65.57;94724.63;5133436;27;20668;-49
2023/05/04 02:21:05;;;;;;;8.70;7.80;;;;;;;15.04;65.81;94723.81;5133205;27;20200;-48
2023/05/04 02:23:32;;;;;;;9.40;7.93;;;;;;;15.04;65.85;94728.97;5133070;27;20220;-49
2023/05/04 02:25:59;;;;;;;9.33;7.50;;;;;;;15.02;65.57;94726.53;5133658;27;20207;-48
2023/05/04 02:28:26;;;;;;;8.70;7.77;;;;;;;15.02;65.71;94723.16;5133029;27;20234;-48
2023/05/04 02:30:54;;;;;;;9.10;8.10;;;;;;;14.99;65.65;94734.63;5131520;27;20276;-49
2023/05/04 02:33:21;;;;;;;8.07;7.27;;;;;;;14.97;65.76;94731.38;5133785;27;20177;-48
2023/05/04 02:35:48;;;;;;;8.20;7.40;;;;;;;14.91;65.63;94726.09;5133706;27;20628;-48
2023/05/04 02:38:14;;;;;;;8.10;7.30;;;;;;;14.92;66.08;94725.91;5133010;27;20204;-48
2023/05/04 02:40:41;;;;;;;7.73;6.73;;;;;;;14.90;66.08;94737.38;5132492;27;20299;-49
2023/05/04 02:43:08;;;;;;;8.43;7.53;;;;;;;14.86;65.92;94725.78;5132973;27;20192;-49
2023/05/04 02:45:35;;;;;;;8.47;6.77;;;;;;;14.84;65.93;94733.66;5132532;27;20557;-55
2023/05/04 02:48:03;;;;;;;8.43;7.53;;;;;;;14.84;65.96;94731.06;5133160;27;20181;-48
2023/05/04 02:50:30;;;;;;;7.80;7.10;;;;;;;14.83;66.05;94728.69;5132660;27;20185;-49
2023/05/04 02:52:57;;;;;;;8.27;7.43;;;;;;;14.82;65.90;94733.03;5132369;27;20185;-50
2023/05/04 02:55:24;;;;;;;7.50;6.67;;;;;;;14.81;65.71;94728.84;5132747;27;20195;-49
2023/05/04 02:57:51;;;;;;;7.83;7.03;;;;;;;14.77;65.92;94728.38;5132455;27;20196;-48
2023/05/04 03:00:18;;;;;;;9.83;7.40;;;;;;;14.66;65.69;94709.88;5132749;27;20191;-49
2023/05/04 03:02:45;;;;;;;6.43;5.77;;;;;;;14.79;65.66;94733.34;5131934;27;20192;-48
2023/05/04 03:05:13;;;;;;;7.67;6.30;;;;;;;14.77;65.65;94732.72;5132508;27;20203;-50
2023/05/04 03:07:40;;;;;;;9.57;5.93;;;;;;;14.78;65.71;94740.28;5132556;27;20210;-48
2023/05/04 03:10:08;;;;;;;9.23;5.97;;;;;;;14.74;65.48;94735.59;5132533;27;20180;-48
2023/05/04 03:12:35;;;;;;;7.37;5.83;;;;;;;14.72;65.51;94725.47;5132029;27;20188;-49
2023/05/04 03:15:02;;;;;;;6.17;5.57;;;;;;;14.76;65.44;94736.22;5132171;27;20291;-50
2023/05/04 03:17:29;;;;;;;7.77;5.17;;;;;;;14.76;65.37;94739.59;5133382;27;20673;-50
2023/05/04 03:19:55;;;;;;;5.83;5.23;;;;;;;14.76;65.28;94744.75;5134109;27;20177;-48
2023/05/04 03:22:24;;;;;;;8.50;6.00;;;;;;;14.76;65.48;94743.97;5131734;27;20678;-51
2023/05/04 03:24:50;;;;;;;10.80;5.90;;;;;;;14.75;65.16;94739.78;5132094;27;20696;-52
2023/05/04 03:27:17;;;;;;;5.87;5.33;;;;;;;14.75;65.27;94750.88;5132055;27;20187;-50
2023/05/04 03:29:44;;;;;;;6.27;5.37;;;;;;;14.51;65.32;94712.31;5131739;27;20575;-49
2023/05/04 03:32:11;;;;;;;6.40;5.40;;;;;;;14.72;65.31;94743.50;5132199;27;20181;-48
2023/05/04 03:34:38;;;;;;;6.07;5.47;;;;;;;14.71;65.40;94744.44;5131265;27;20275;-48
2023/05/04 03:37:05;;;;;;;7.23;5.63;;;;;;;14.72;65.39;94758.13;5131566;27;20196;-49
2023/05/04 03:39:33;;;;;;;5.90;4.67;;;;;;;14.71;65.59;94761.66;5133225;27;20199;-49
2023/05/04 03:42:00;;;;;;;5.33;4.83;;;;;;;14.67;65.75;94750.06;5131375;27;20200;-48
2023/05/04 03:44:27;;;;;;;5.13;4.23;;;;;;;14.65;65.47;94755.41;5131512;27;20679;-49
2023/05/04 03:46:53;;;;;;;6.93;5.33;;;;;;;14.68;65.91;94767.97;5132019;27;20276;-49
2023/05/04 03:49:21;;;;;;;5.50;4.70;;;;;;;14.59;65.76;94750.88;5131552;27;20188;-49
2023/05/04 03:51:47;;;;;;;5.03;4.60;;;;;;;14.70;65.84;94776.31;5131436;27;20253;-47
2023/05/04 03:54:14;;;;;;;6.10;4.90;;;;;;;14.71;65.59;94777.91;5134812;27;20244;-49
2023/05/04 03:56:42;;;;;;;4.73;4.30;;;;;;;14.71;65.66;94764.22;5135858;27;20622;-48
2023/05/04 03:59:09;;;;;;;6.33;4.67;;;;;;;14.79;65.65;94777.13;5135241;27;20313;-49
2023/05/04 04:01:36;;;;;;;4.83;4.33;;;;;;;14.84;65.76;94774.84;5134631;27;20247;-49
2023/05/04 04:04:03;;;;;;;5.20;4.70;;;;;;;14.91;65.55;94777.59;5134632;27;20283;-49
2023/05/04 04:06:31;;;;;;;5.30;4.37;;;;;;;14.99;65.59;94780.16;5134711;27;20621;-49
2023/05/04 04:08:58;;;;;;;5.17;4.10;;;;;;;14.82;65.25;94751.06;5133811;27;20199;-48
2023/05/04 04:11:25;;;;;;;6.13;4.60;;;;;;;15.07;65.35;94785.31;5131499;27;20572;-49
2023/05/04 04:13:53;;;;;;;4.03;3.73;;;;;;;15.15;65.08;94787.84;5131317;27;20623;-50
2023/05/04 04:16:20;;;;;;;6.80;4.53;;;;;;;15.20;65.20;94789.97;5132476;27;20184;-49
2023/05/04 04:18:47;;;;;;;5.07;4.20;;;;;;;15.23;65.15;94790.41;5131724;27;20572;-50
2023/05/04 04:21:14;;;;;;;6.57;4.50;;;;;;;15.28;64.92;94790.75;5130417;27;20216;-50
2023/05/04 04:23:40;;;;;;;4.50;4.10;;;;;;;15.30;64.97;94788.81;5131007;27;20301;-48
2023/05/04 04:26:07;;;;;;;4.63;4.23;;;;;;;15.36;64.98;94799.44;5130548;27;20191;-49
2023/05/04 04:28:34;;;;;;;4.43;4.03;;;;;;;15.39;64.84;94796.53;5129893;27;20188;-48
2023/05/04 04:31:03;;;;;;;5.63;4.43;;;;;;;15.42;64.87;94798.78;5130334;27;20195;-49
2023/05/04 04:33:30;;;;;;;4.87;4.43;;;;;;;14.97;64.88;94728.00;5130982;27;20181;-50
2023/05/04 04:35:57;;;;;;;4.87;3.90;;;;;;;15.47;64.95;94799.09;5131708;27;20217;-48
2023/05/04 04:38:23;;;;;;;5.07;4.23;;;;;;;15.48;64.87;94803.25;5129974;27;20184;-48
2023/05/04 04:40:50;;;;;;;5.37;4.30;;;;;;;15.48;64.92;94800.69;5130772;27;20198;-49
2023/05/04 04:43:17;;;;;;;6.13;4.40;;;;;;;15.47;64.87;94799.88;5130473;27;20188;-50
2023/05/04 04:45:44;;;;;;;8.40;4.40;;;;;;;15.55;68.15;94810.19;5130402;27;20199;-50
2023/05/04 04:48:12;;;;;;;10.53;4.60;;;;;;;15.90;77.53;94812.53;5129830;27;20675;-51
2023/05/04 04:50:40;;;;;;;9.97;5.23;;;;;;;16.00;78.22;94780.38;5130177;27;20207;-48
2023/05/04 04:53:06;;;;;;;5.50;4.47;;;;;;;16.44;77.83;94804.81;5130606;27;20232;-50
2023/05/04 04:55:33;;;;;;;8.63;4.37;;;;;;;16.64;76.59;94815.53;5130193;27;20591;-48
2023/05/04 04:58:00;;;;;;;5.30;4.13;;;;;;;16.83;76.03;94811.69;5129879;27;20188;-48
2023/05/04 05:00:27;;;;;;;8.60;4.00;;;;;;;16.96;76.19;94801.56;5130486;27;20184;-48
2023/05/04 05:02:54;;;;;;;4.40;4.00;;;;;;;17.18;75.14;94812.84;5129835;27;20223;-48
2023/05/04 05:05:22;;;;;;;6.33;4.00;;;;;;;17.34;74.88;94825.63;5130025;27;20211;-48
2023/05/04 05:07:49;;;;;;;14.07;4.33;;;;;;;17.38;73.71;94811.38;5121127;27;20205;-48
2023/05/04 05:10:16;;;;;;;9.60;4.57;;;;;;;17.59;73.99;94823.63;5107416;28;20196;-49
2023/05/04 05:12:42;;;;;;;6.57;4.00;;;;;;;17.70;73.25;94830.13;5107453;28;20693;-49
2023/05/04 05:15:10;;;;;;;6.87;4.30;;;;;;;17.79;72.96;94824.75;5107067;28;20189;-49
2023/05/04 05:17:37;;;;;;;14.70;4.70;;;;;;;17.91;72.28;94835.41;5107413;28;20184;-49
2023/05/04 05:20:08;;;;;;;5.17;3.70;;;;;;;17.99;71.87;94824.19;5121719;27;20446;-51
2023/05/04 05:22:37;;;;;;;5.57;4.87;;;;;;;18.09;70.70;94839.41;5127762;27;20220;-49
2023/05/04 05:25:04;;;;;;;5.10;3.80;;;;;;;17.95;69.77;94820.34;5127236;27;20228;-50
2023/05/04 05:27:32;;;;;;;4.77;4.03;;;;;;;17.85;68.70;94825.00;5126779;27;20204;-49
2023/05/04 05:29:58;;;;;;;6.77;4.27;;;;;;;17.79;68.53;94840.25;5127119;27;20269;-49
2023/05/04 05:32:25;;;;;;;4.43;4.03;;;;;;;17.68;68.68;94840.66;5126932;28;20184;-49
2023/05/04 05:34:52;;;;;;;5.10;3.80;;;;;;;17.51;68.29;94836.63;5141346;27;20206;-50
2023/05/04 05:37:19;;;;;;;7.50;5.20;;;;;;;17.43;68.16;94847.03;5125591;27;20192;-49
2023/05/04 05:39:47;;;;;;;5.03;4.27;;;;;;;17.34;68.07;94861.03;5111492;28;20608;-49
2023/05/04 05:42:14;;;;;;;8.00;4.13;;;;;;;17.27;67.84;94860.91;5109733;28;20228;-48
2023/05/04 05:44:41;;;;;;;5.17;3.90;;;;;;;17.21;67.77;94856.44;5111480;28;20196;-47
2023/05/04 05:47:09;;;;;;;6.77;4.27;;;;;;;17.15;67.63;94855.38;5113624;28;20688;-50
2023/05/04 05:49:36;;;;;;;7.13;3.90;;;;;;;17.14;67.67;94860.69;5113708;28;20184;-48
2023/05/04 05:52:03;;;;;;;6.30;4.30;;;;;;;17.04;67.48;94851.41;5128294;27;20193;-49
2023/05/04 05:54:32;;;;;;;4.70;3.60;;;;;;;17.10;67.07;94865.44;5134626;27;20191;-47
2023/05/04 05:57:00;;;;;;;9.77;4.63;;;;;;;17.10;66.96;94867.19;5133814;27;20525;-50
2023/05/04 05:59:27;;;;;;;4.60;4.13;;;;;;;17.09;66.69;94866.38;5134342;27;20279;-49
2023/05/04 06:01:54;;;;;;;5.03;4.30;;;;;;;17.05;66.65;94862.53;5132729;27;20199;-50
2023/05/04 06:04:21;;;;;;;5.33;4.10;;;;;;;17.14;66.15;94874.44;5133786;27;20203;-51
2023/05/04 06:06:47;;;;;;;5.17;4.33;;;;;;;17.21;65.86;94874.53;5133524;27;20192;-48
2023/05/04 06:09:14;;;;;;;6.03;4.43;;;;;;;17.22;65.47;94858.84;5133523;27;20180;-48
2023/05/04 06:11:41;;;;;;;5.53;3.63;;;;;;;17.46;65.18;94869.97;5133113;27;20245;-49
2023/05/04 06:14:09;;;;;;;5.43;3.97;;;;;;;17.65;64.70;94887.56;5133479;27;20207;-49
2023/05/04 06:16:36;;;;;;;4.23;3.60;;;;;;;17.82;64.07;94877.09;5133300;27;20184;-48
2023/05/04 06:19:03;;;;;;;5.30;4.47;;;;;;;17.97;63.78;94876.13;5133502;27;20181;-48
2023/05/04 06:21:29;;;;;;;4.80;3.87;;;;;;;18.10;63.27;94872.09;5128604;27;20220;-48
2023/05/04 06:23:56;;;;;;;4.43;3.97;;;;;;;18.29;62.80;94879.31;5130864;27;20224;-49
2023/05/04 06:26:23;;;;;;;5.20;4.13;;;;;;;18.42;62.59;94878.66;5132405;27;20664;-49
2023/05/04 06:28:50;;;;;;;7.83;4.30;;;;;;;18.53;62.21;94871.25;5133015;27;20192;-50
2023/05/04 06:31:18;;;;;;;3.77;3.47;;;;;;;18.68;61.83;94880.75;5133657;27;20191;-50
2023/05/04 06:33:45;;;;;;;4.10;3.60;;;;;;;18.76;61.59;94880.69;5131952;27;20188;-48
2023/05/04 06:36:13;;;;;;;4.00;3.67;;;;;;;18.83;61.41;94881.56;5133715;27;20195;-49
2023/05/04 06:38:39;;;;;;;3.47;3.17;;;;;;;18.92;61.25;94883.03;5131768;27;20692;-49
2023/05/04 06:41:06;;;;;;;5.50;3.50;;;;;;;19.03;60.96;94876.56;5132620;27;20188;-49
2023/05/04 06:43:33;;;;;;;3.83;3.47;;;;;;;19.06;60.59;94878.78;5131479;27;20220;-49
2023/05/04 06:46:01;;;;;;;3.80;3.50;;;;;;;19.11;60.42;94884.22;5131826;27;20199;-48
2023/05/04 06:48:30;;;;;;;5.00;4.03;;;;;;;19.08;60.34;94876.78;5131464;27;20223;-49
2023/05/04 06:50:57;;;;;;;3.70;3.27;;;;;;;18.61;60.18;94815.13;5132219;27;20192;-49
2023/05/04 06:53:24;;;;;;;5.77;4.20;;;;;;;18.93;60.09;94883.84;5131254;27;20196;-49
2023/05/04 06:55:51;;;;;;;6.83;4.03;;;;;;;18.83;60.07;94885.94;5131132;27;20239;-49
2023/05/04 06:58:18;;;;;;;4.07;3.43;;;;;;;18.69;60.06;94883.19;5132189;27;20649;-49
2023/05/04 07:00:45;;;;;;;7.10;3.80;;;;;;;18.61;60.10;94882.47;5127973;27;20310;-50
2023/05/04 07:03:12;;;;;;;3.77;3.43;;;;;;;18.45;60.21;94884.28;5130500;27;20395;-48
2023/05/04 07:05:41;;;;;;;4.07;3.50;;;;;;;18.32;60.17;94889.31;5131146;27;20203;-49
2023/05/04 07:08:09;;;;;;;3.77;3.47;;;;;;;18.20;60.18;94883.78;5131413;27;20192;-49
2023/05/04 07:10:35;;;;;;;5.50;4.00;;;;;;;18.07;60.51;94886.19;5131289;27;20610;-49
2023/05/04 07:13:02;;;;;;;4.03;3.67;;;;;;;17.95;60.52;94882.44;5131534;27;20664;-48
2023/05/04 07:15:29;;;;;;;5.10;3.73;;;;;;;17.84;60.55;94881.13;5131053;27;20200;-49
2023/05/04 07:17:56;;;;;;;3.83;3.53;;;;;;;17.72;60.79;94883.28;5131309;27;20189;-49
2023/05/04 07:20:23;;;;;;;4.57;3.50;;;;;;;17.61;60.89;94883.72;5131298;27;20199;-48
2023/05/04 07:22:53;;;;;;;4.77;3.87;;;;;;;17.50;60.88;94886.75;5130046;27;20296;-49
2023/05/04 07:25:20;;;;;;;3.90;3.50;;;;;;;17.37;61.14;94879.59;5131015;27;20708;-48
2023/05/04 07:27:47;;;;;;;5.40;3.53;;;;;;;17.32;61.12;94881.09;5131159;27;20215;-48
2023/05/04 07:30:15;;;;;;;4.07;3.40;;;;;;;17.21;61.25;94879.72;5130924;27;20667;-49
2023/05/04 07:32:41;;;;;;;4.73;4.07;;;;;;;17.16;61.33;94890.56;5131434;27;20652;-49
2023/05/04 07:35:09;;;;;;;6.13;3.67;;;;;;;17.08;61.28;94893.22;5131210;27;20196;-50
2023/05/04 07:37:36;;;;;;;4.33;3.90;;;;;;;17.05;61.47;94890.97;5130787;27;20203;-49
2023/05/04 07:40:06;;;;;;;4.93;3.90;;;;;;;16.96;61.58;94884.25;5131053;27;20685;-49
2023/05/04 07:42:33;;;;;;;4.50;3.33;;;;;;;16.91;61.34;94897.69;5131298;27;20208;-49
2023/05/04 07:45:00;;;;;;;4.47;4.07;;;;;;;16.87;61.72;94893.03;5132269;27;20196;-48
2023/05/04 07:47:27;;;;;;;4.07;3.67;;;;;;;16.87;61.57;94895.63;5131081;27;20192;-49
2023/05/04 07:49:54;;;;;;;6.10;4.13;;;;;;;16.82;61.54;94892.75;5129625;27;20192;-48
2023/05/04 07:52:20;;;;;;;4.30;3.90;;;;;;;16.78;61.67;94900.03;5133348;27;20274;-48
2023/05/04 07:54:47;;;;;;;4.40;3.80;;;;;;;16.79;61.46;94906.78;5133965;27;20200;-50
2023/05/04 07:57:15;;;;;;;4.03;3.63;;;;;;;16.77;61.70;94901.00;5131230;27;20672;-50
2023/05/04 07:59:42;;;;;;;4.37;3.80;;;;;;;16.79;61.71;94910.19;5130370;27;20201;-49
2023/05/04 08:02:09;;;;;;;4.37;3.80;;;;;;;16.78;61.54;94911.16;5130038;27;20216;-49
2023/05/04 08:04:36;;;;;;;4.23;3.83;;;;;;;16.78;61.49;94915.53;5130731;27;20234;-49
2023/05/04 08:07:03;;;;;;;4.23;3.67;;;;;;;16.76;61.59;94918.28;5130135;27;20192;-50
2023/05/04 08:09:29;;;;;;;5.20;4.13;;;;;;;16.75;61.59;94919.28;5130505;27;20192;-48
2023/05/04 08:11:56;;;;;;;5.27;4.33;;;;;;;16.74;61.57;94922.81;5130178;27;20188;-51
2023/05/04 08:14:24;;;;;;;4.23;3.83;;;;;;;16.75;61.67;94927.03;5130429;27;20195;-49
2023/05/04 08:16:51;;;;;;;4.93;3.50;;;;;;;16.62;61.55;94905.25;5130362;27;20201;-49
2023/05/04 08:19:19;;;;;;;5.27;3.77;;;;;;;16.78;61.57;94925.84;5130208;27;20196;-48
2023/05/04 08:21:45;;;;;;;4.27;3.87;;;;;;;16.74;61.68;94917.63;5130635;27;20195;-48
2023/05/04 08:24:12;;;;;;;4.70;4.30;;;;;;;16.77;61.77;94922.47;5130001;27;20247;-47
2023/05/04 08:26:39;;;;;;;4.37;3.97;;;;;;;16.78;61.38;94926.66;5129826;27;20203;-48
2023/05/04 08:29:09;;;;;;;4.73;3.93;;;;;;;16.80;61.11;94926.50;5129604;27;20177;-49
2023/05/04 08:31:37;;;;;;;3.97;3.67;;;;;;;16.79;61.53;94920.50;5129408;27;20194;-49
2023/05/04 08:34:04;;;;;;;4.43;4.03;;;;;;;16.87;61.41;94927.41;5129620;27;20188;-50
2023/05/04 08:36:31;;;;;;;4.33;3.93;;;;;;;16.91;61.28;94923.53;5129675;27;20355;-48
2023/05/04 08:38:58;;;;;;;4.50;4.10;;;;;;;16.97;61.18;94919.47;5129598;27;20192;-49
2023/05/04 08:41:25;;;;;;;6.67;4.20;;;;;;;17.03;61.03;94908.44;5129747;27;20210;-49
2023/05/04 08:43:52;;;;;;;6.77;4.90;;;;;;;17.07;60.92;94907.13;5128965;27;20328;-48
2023/05/04 08:46:19;;;;;;;4.50;4.10;;;;;;;17.23;60.69;94913.97;5129981;27;20260;-48
2023/05/04 08:48:47;;;;;;;4.37;3.97;;;;;;;17.38;60.37;94912.22;5129465;27;20192;-48
2023/05/04 08:51:14;;;;;;;5.07;4.27;;;;;;;17.51;60.13;94903.84;5129711;27;20191;-48
2023/05/04 08:53:45;;;;;;;5.47;4.13;;;;;;;17.51;59.89;94880.59;5127887;27;20557;-50
2023/05/04 08:56:15;;;;;;;4.87;4.47;;;;;;;17.77;59.68;94898.31;5126857;27;20224;-50
2023/05/04 08:58:48;;;;;;;5.43;3.97;;;;;;;18.01;59.44;94917.97;5129421;27;20533;-49
2023/05/04 09:01:16;;;;;;;4.33;3.93;;;;;;;18.15;59.21;94919.75;5130813;27;20608;-49
2023/05/04 09:03:44;;;;;;;6.77;4.13;;;;;;;18.26;58.94;94919.31;5128880;27;20220;-49
2023/05/04 09:06:13;;;;;;;4.23;3.80;;;;;;;18.40;58.71;94922.09;5129788;27;20575;-49
2023/05/04 09:08:40;;;;;;;4.90;4.10;;;;;;;18.40;58.42;94893.59;5128669;27;20718;-49
2023/05/04 09:11:08;;;;;;;5.10;4.23;;;;;;;18.65;58.27;94918.22;5129317;27;20244;-48
2023/05/04 09:13:35;;;;;;;5.17;4.20;;;;;;;18.65;58.09;94902.66;5129298;27;20198;-49
2023/05/04 09:16:03;;;;;;;4.43;4.00;;;;;;;18.88;57.92;94918.09;5129346;27;20177;-47
2023/05/04 09:18:37;;;;;;;4.60;4.20;;;;;;;19.00;57.69;94921.00;5129014;27;20208;-50
2023/05/04 09:21:04;;;;;;;4.57;3.83;;;;;;;19.13;57.30;94928.09;5128885;27;20218;-49
2023/05/04 09:23:33;;;;;;;4.87;4.10;;;;;;;19.19;57.30;94917.00;5128208;27;20224;-49
2023/05/04 09:26:00;;;;;;;4.27;3.87;;;;;;;19.04;57.06;94893.69;5128638;27;20192;-50
2023/05/04 09:28:37;;;;;;;4.47;4.07;;;;;;;19.25;57.06;94922.22;5129034;27;20192;-48
2023/05/04 09:31:06;;;;;;;5.10;4.60;;;;;;;19.25;56.93;94921.44;5129348;27;20735;-49
2023/05/04 09:33:33;;;;;;;5.03;4.00;;;;;;;19.25;56.83;94917.03;5130364;28;20218;-48
2023/05/04 09:36:12;;;;;;;4.67;4.27;;;;;;;19.26;56.92;94921.25;5129513;28;20177;-51
2023/05/04 09:38:40;;;;;;;3.87;3.57;;;;;;;19.29;56.75;94918.28;5129963;28;20203;-49
2023/05/04 09:41:07;;;;;;;4.27;3.63;;;;;;;19.35;56.73;94919.34;5127641;28;20206;-50
2023/05/04 09:43:38;;;;;;;6.33;4.13;;;;;;;19.41;56.50;94912.59;5129758;28;20214;-48
2023/05/04 09:46:05;;;;;;;6.17;4.50;;;;;;;19.45;56.56;94906.84;5129816;28;20695;-49
2023/05/04 09:48:32;;;;;;;4.97;4.47;;;;;;;19.50;56.30;94908.88;5129775;28;20184;-52
2023/05/04 09:51:01;;;;;;;4.97;4.30;;;;;;;19.25;56.01;94867.78;5130901;28;20197;-51
2023/05/04 09:53:29;;;;;;;4.47;4.00;;;;;;;19.51;56.26;94907.88;5129489;28;20189;-54
2023/05/04 09:56:10;;;;;;;4.43;4.03;;;;;;;19.51;56.18;94913.06;5129208;28;20245;-48
2023/05/04 09:58:37;;;;;;;4.27;3.87;;;;;;;19.52;55.83;94905.13;5127039;28;20196;-49
2023/05/04 10:01:05;;;;;;;4.47;4.07;;;;;;;19.58;55.79;94910.53;5129168;27;20184;-48
2023/05/04 10:03:32;;;;;;;5.53;4.20;;;;;;;19.60;55.74;94909.34;5128597;27;20208;-49
2023/05/04 10:05:59;;;;;;;7.73;4.10;;;;;;;19.59;55.73;94902.56;5126463;28;20203;-48
2023/05/04 10:08:27;;;;;;;6.57;4.50;;;;;;;19.59;55.58;94907.75;5128776;28;20215;-48
2023/05/04 10:10:54;;;;;;;5.10;4.60;;;;;;;19.61;55.47;94902.44;5128425;27;20238;-49
2023/05/04 10:13:23;;;;;;;4.43;4.03;;;;;;;19.62;55.44;94906.63;5128401;27;20191;-48
2023/05/04 10:16:02;;;;;;;4.67;4.27;;;;;;;19.64;55.50;94909.81;5127916;28;20469;-51
2023/05/04 10:18:41;;;;;;;5.27;4.70;;;;;;;19.60;55.42;94893.78;5128286;27;20801;-49
2023/05/04 10:21:25;;;;;;;5.73;5.17;;;;;;;19.60;55.35;94893.00;5127642;28;20623;-51
2023/05/04 10:24:14;;;;;;;4.97;4.50;;;;;;;19.60;55.58;94893.78;5128462;28;20265;-48
2023/05/04 10:27:07;;;;;;;8.13;4.93;;;;;;;19.50;55.42;94880.34;5129949;28;20188;-49
2023/05/04 10:29:36;;;;;;;5.80;5.20;;;;;;;19.62;55.48;94902.22;5066674;28;20546;-48
2023/05/04 10:32:03;;;;;;;5.90;5.37;;;;;;;19.54;55.43;94884.97;5069431;28;20224;-49
2023/05/04 10:34:31;;;;;;;5.60;5.00;;;;;;;19.60;55.27;94886.00;5068526;28;20202;-50
2023/05/04 10:36:59;;;;;;;6.17;5.03;;;;;;;19.76;55.05;94884.97;5069259;28;20186;-50
2023/05/04 10:39:27;;;;;;;5.30;4.80;;;;;;;19.88;54.85;94888.63;5068442;28;20186;-48
2023/05/04 10:42:02;;;;;;;5.83;5.23;;;;;;;20.02;54.72;94887.72;5068593;28;20202;-50
2023/05/04 10:44:30;;;;;;;7.13;5.43;;;;;;;20.13;54.51;94888.19;5068265;28;20229;-48
2023/05/04 10:47:04;;;;;;;6.53;5.13;;;;;;;20.26;54.32;94888.25;5068884;28;20195;-48
2023/05/04 10:49:31;;;;;;;7.17;5.90;;;;;;;20.48;54.06;94896.78;5068772;28;20652;-48
2023/05/04 10:52:06;;;;;;;6.47;5.53;;;;;;;20.66;53.82;94885.84;5068756;28;20194;-49
2023/05/04 10:54:34;;;;;;;6.83;6.10;;;;;;;20.87;53.61;94895.31;5068087;28;20585;-49
2023/05/04 10:57:03;;;;;;;6.60;5.97;;;;;;;20.93;53.56;94890.09;5068342;28;20204;-49
2023/05/04 10:59:32;;;;;;;6.93;5.18;;;;;;;21.18;53.23;94897.38;5068028;28;20697;-47
2023/05/04 11:02:00;;;;;;;6.65;5.70;;;;;;;21.29;53.04;94889.78;5068088;28;20212;-49
2023/05/04 11:04:28;;;;;;;6.72;6.03;;;;;;;21.40;52.78;94885.81;5067885;28;20221;-50
2023/05/04 11:06:59;;;;;;;7.38;5.75;;;;;;;21.56;52.57;94891.63;5120141;27;20188;-49
2023/05/04 11:09:28;;;;;;;6.72;5.80;;;;;;;21.71;52.43;94887.00;5131751;27;20671;-51
2023/05/04 11:11:56;;;;;;;8.32;6.07;;;;;;;21.96;52.15;94887.16;5131384;27;20216;-48
2023/05/04 11:14:26;;;;;;;10.80;6.32;;;;;;;22.24;51.65;94885.13;5131217;27;20196;-49
2023/05/04 11:16:54;;;;;;;9.55;6.53;;;;;;;22.47;51.13;94894.28;5131182;27;20195;-48
2023/05/04 11:19:21;;;;;;;7.30;6.25;;;;;;;22.36;51.11;94861.81;5131396;27;20216;-49
2023/05/04 11:21:50;;;;;;;7.85;6.35;;;;;;;22.38;50.97;94861.63;5131482;27;20666;-48
2023/05/04 11:24:17;;;;;;;7.80;6.43;;;;;;;22.64;50.99;94892.00;5131305;27;20681;-49
2023/05/04 11:26:48;;;;;;;8.52;7.20;;;;;;;22.64;50.49;94886.78;5131635;27;20222;-48
2023/05/04 11:29:15;;;;;;;8.60;6.70;;;;;;;22.66;50.82;94888.16;5131684;27;20288;-48
2023/05/04 11:31:43;;;;;;;9.90;7.65;;;;;;;22.58;50.87;94888.41;5130900;27;20195;-48
2023/05/04 11:34:19;;;;;;;10.60;7.07;;;;;;;22.48;50.92;94891.44;5131052;27;20226;-49
2023/05/04 11:36:48;;;;;;;13.77;7.05;;;;;;;22.36;50.89;94893.09;5129316;27;20731;-49